Time;durP1;ratioP1;P1;durP2;ratioP2;P2;SDS_P1;SDS_P2;PMS_P1;PMS_P2;Temp;Humidity;BMP_temperature;BMP_pressure;BME280_temperature;BME280_humidity;BME280_pressure;Samples;Min_cycle;Max_cycle;Signal;HPM_P1;HPM_P2
2021/11/12 00:04:39;;;;;;;0.13;0.13;;;;;;;;;;5385068;22;20242;-67
2021/11/12 00:12:44;;;;;;;0.10;0.10;;;;;;;;;;5004831;28;20200;-67
2021/11/12 00:15:12;;;;;;;0.10;0.10;;;;;;;;;;5042927;28;20203;-67
2021/11/12 00:17:40;;;;;;;0.10;0.10;;;;;;;;;;5050773;28;20490;-67
2021/11/12 00:20:07;;;;;;;0.10;0.10;;;;;;;;;;5055441;28;20434;-69
2021/11/12 00:22:34;;;;;;;0.10;0.10;;;;;;;;;;5042825;28;20204;-67
2021/11/12 00:25:02;;;;;;;0.10;0.10;;;;;;;;;;5044912;28;20300;-68
2021/11/12 00:27:29;;;;;;;0.17;0.17;;;;;;;;;;5043010;28;20445;-69
2021/11/12 00:30:02;;;;;;;0.10;0.10;;;;;;;;;;5044845;28;20365;-68
2021/11/12 00:32:39;;;;;;;0.10;0.10;;;;;;;;;;5056176;28;20201;-68
2021/11/12 00:35:17;;;;;;;0.10;0.10;;;;;;;;;;5050825;28;20494;-67
2021/11/12 00:37:52;;;;;;;0.10;0.10;;;;;;;;;;5046979;28;20341;-68
2021/11/12 00:40:21;;;;;;;0.13;0.13;;;;;;;;;;5053103;28;20207;-68
2021/11/12 00:43:05;;;;;;;0.10;0.10;;;;;;;;;;5048697;28;20452;-68
2021/11/12 00:45:34;;;;;;;0.10;0.10;;;;;;;;;;5066600;28;20228;-68
2021/11/12 00:48:11;;;;;;;0.10;0.10;;;;;;;;;;5059611;28;20203;-68
2021/11/12 00:50:54;;;;;;;0.10;0.10;;;;;;;;;;5056494;28;20246;-68
2021/11/12 00:56:04;;;;;;;0.10;0.10;;;;;;;;;;5061160;28;20209;-68
2021/11/12 00:58:31;;;;;;;0.10;0.10;;;;;;;;;;5048333;28;20231;-69
2021/11/12 01:00:57;;;;;;;0.10;0.10;;;;;;;;;;5051535;28;20238;-69
2021/11/12 01:03:25;;;;;;;0.10;0.10;;;;;;;;;;5053765;28;20236;-69
2021/11/12 01:05:51;;;;;;;0.10;0.10;;;;;;;;;;5058623;28;20196;-68
2021/11/12 01:08:17;;;;;;;0.10;0.10;;;;;;;;;;5052397;28;20238;-68
2021/11/12 01:10:44;;;;;;;0.10;0.10;;;;;;;;;;5059067;28;20223;-67
2021/11/12 01:13:10;;;;;;;0.10;0.10;;;;;;;;;;5064873;28;20204;-67
2021/11/12 01:15:36;;;;;;;0.10;0.10;;;;;;;;;;5060977;28;20495;-68
2021/11/12 01:18:03;;;;;;;0.10;0.10;;;;;;;;;;5064309;28;20223;-68
2021/11/12 01:20:30;;;;;;;0.10;0.10;;;;;;;;;;5049349;28;20207;-67
2021/11/12 01:22:56;;;;;;;0.10;0.10;;;;;;;;;;5052034;28;20209;-67
2021/11/12 01:25:23;;;;;;;0.10;0.10;;;;;;;;;;5059468;28;20216;-68
2021/11/12 01:27:49;;;;;;;0.10;0.10;;;;;;;;;;5045582;28;20201;-68
2021/11/12 01:30:16;;;;;;;0.10;0.10;;;;;;;;;;5050248;28;20251;-68
2021/11/12 01:32:43;;;;;;;0.10;0.10;;;;;;;;;;5045780;28;20517;-68
2021/11/12 01:35:10;;;;;;;0.10;0.10;;;;;;;;;;5059892;28;20522;-68
2021/11/12 01:37:39;;;;;;;0.10;0.10;;;;;;;;;;5057105;28;20339;-67
2021/11/12 01:40:08;;;;;;;0.10;0.10;;;;;;;;;;5057341;28;20454;-68
2021/11/12 01:42:53;;;;;;;0.10;0.10;;;;;;;;;;5054272;28;20557;-67
2021/11/12 01:45:27;;;;;;;0.10;0.10;;;;;;;;;;5064883;28;20235;-67
2021/11/12 01:48:01;;;;;;;0.10;0.10;;;;;;;;;;5061143;28;20238;-67
2021/11/12 01:50:28;;;;;;;0.20;0.20;;;;;;;;;;5062634;28;20242;-68
2021/11/12 01:53:06;;;;;;;0.20;0.20;;;;;;;;;;5048894;28;20203;-68
2021/11/12 01:55:41;;;;;;;0.10;0.10;;;;;;;;;;5062719;28;20212;-68
2021/11/12 01:58:16;;;;;;;0.10;0.10;;;;;;;;;;5055208;28;20217;-68
2021/11/12 02:00:42;;;;;;;0.10;0.10;;;;;;;;;;5045303;28;20208;-68
2021/11/12 02:03:09;;;;;;;0.10;0.10;;;;;;;;;;5044808;28;20296;-68
2021/11/12 02:05:35;;;;;;;0.10;0.10;;;;;;;;;;5052323;28;20261;-68
2021/11/12 02:08:03;;;;;;;0.10;0.10;;;;;;;;;;5059225;28;20250;-68
2021/11/12 02:10:31;;;;;;;0.10;0.10;;;;;;;;;;5058486;28;20276;-68
2021/11/12 02:13:01;;;;;;;0.10;0.10;;;;;;;;;;5058454;28;20267;-67
2021/11/12 02:15:28;;;;;;;0.10;0.10;;;;;;;;;;5054637;28;20499;-68
2021/11/12 02:17:58;;;;;;;0.10;0.10;;;;;;;;;;5062910;28;20228;-68
2021/11/12 02:20:28;;;;;;;0.10;0.10;;;;;;;;;;5058440;28;20224;-68
2021/11/12 02:22:59;;;;;;;0.10;0.10;;;;;;;;;;5053720;28;20200;-68
2021/11/12 02:25:28;;;;;;;0.10;0.10;;;;;;;;;;5063062;28;20193;-67
2021/11/12 02:27:57;;;;;;;0.10;0.10;;;;;;;;;;5057755;28;20206;-68
2021/11/12 02:30:25;;;;;;;0.10;0.10;;;;;;;;;;5047122;28;20207;-67
2021/11/12 02:33:01;;;;;;;0.10;0.10;;;;;;;;;;5064013;28;20215;-67
2021/11/12 02:35:28;;;;;;;0.10;0.10;;;;;;;;;;5054192;28;20210;-67
2021/11/12 02:37:56;;;;;;;0.10;0.10;;;;;;;;;;5053212;28;20240;-67
2021/11/12 02:40:22;;;;;;;0.10;0.10;;;;;;;;;;5058293;28;20285;-68
2021/11/12 02:42:49;;;;;;;0.10;0.10;;;;;;;;;;5057162;28;20241;-68
2021/11/12 02:45:15;;;;;;;0.10;0.10;;;;;;;;;;5058845;28;20212;-68
2021/11/12 02:47:41;;;;;;;0.20;0.20;;;;;;;;;;5055440;28;20204;-68
2021/11/12 02:50:08;;;;;;;0.10;0.10;;;;;;;;;;5048498;28;20201;-68
2021/11/12 02:52:34;;;;;;;0.10;0.10;;;;;;;;;;5055000;28;20257;-68
2021/11/12 02:55:01;;;;;;;0.10;0.10;;;;;;;;;;5057254;28;20202;-68
2021/11/12 02:57:29;;;;;;;0.10;0.10;;;;;;;;;;5056265;28;20275;-68
2021/11/12 02:59:57;;;;;;;0.10;0.10;;;;;;;;;;5044478;28;20540;-67
2021/11/12 03:02:23;;;;;;;0.10;0.10;;;;;;;;;;5059274;28;20200;-68
2021/11/12 03:04:49;;;;;;;0.10;0.10;;;;;;;;;;5053087;28;20232;-68
2021/11/12 03:07:16;;;;;;;0.10;0.10;;;;;;;;;;5046461;28;20205;-68
2021/11/12 03:09:43;;;;;;;0.10;0.10;;;;;;;;;;5055519;28;20201;-68
2021/11/12 03:12:10;;;;;;;0.10;0.10;;;;;;;;;;5045070;28;20300;-68
2021/11/12 03:14:37;;;;;;;0.10;0.10;;;;;;;;;;5043907;28;20427;-67
2021/11/12 03:17:04;;;;;;;0.10;0.10;;;;;;;;;;5057192;28;20200;-68
2021/11/12 03:19:31;;;;;;;0.10;0.10;;;;;;;;;;5049213;28;20288;-68
2021/11/12 03:22:02;;;;;;;0.10;0.10;;;;;;;;;;5055967;28;20201;-68
2021/11/12 03:24:31;;;;;;;0.10;0.10;;;;;;;;;;5053632;28;20208;-68
2021/11/12 03:27:07;;;;;;;0.10;0.10;;;;;;;;;;5056233;28;20351;-68
2021/11/12 03:30:09;;;;;;;0.10;0.10;;;;;;;;;;5049686;28;20255;-68
2021/11/12 04:02:54;;;;;;;0.10;0.10;;;;;;;;;;5047316;28;20203;-68
2021/11/12 04:19:24;;;;;;;0.10;0.10;;;;;;;;;;5055727;28;20249;-68
2021/11/12 04:22:00;;;;;;;0.10;0.10;;;;;;;;;;5055774;28;20279;-67
2021/11/12 04:49:40;;;;;;;0.10;0.10;;;;;;;;;;5045065;28;20199;-67
2021/11/12 05:11:39;;;;;;;0.10;0.10;;;;;;;;;;5014899;28;20214;-67
2021/11/12 05:25:29;;;;;;;0.10;0.10;;;;;;;;;;5042413;28;20526;-67
2021/11/12 05:45:08;;;;;;;0.10;0.10;;;;;;;;;;5048976;28;20521;-67
2021/11/12 05:50:21;;;;;;;0.10;0.10;;;;;;;;;;5050822;28;20246;-68
2021/11/12 05:55:32;;;;;;;0.10;0.10;;;;;;;;;;5046851;28;20392;-68
2021/11/12 05:58:00;;;;;;;0.10;0.10;;;;;;;;;;5056740;28;20275;-68
2021/11/12 06:00:26;;;;;;;0.10;0.10;;;;;;;;;;5060102;28;20339;-68
2021/11/12 06:02:52;;;;;;;0.10;0.10;;;;;;;;;;5062146;28;20511;-68
2021/11/12 06:05:19;;;;;;;0.10;0.10;;;;;;;;;;5060138;28;20488;-68
2021/11/12 06:07:47;;;;;;;0.17;0.17;;;;;;;;;;5045279;28;20206;-68
2021/11/12 06:10:14;;;;;;;0.20;0.20;;;;;;;;;;5044780;28;20251;-68
2021/11/12 06:12:40;;;;;;;0.10;0.10;;;;;;;;;;5053062;28;20274;-68
2021/11/12 06:15:09;;;;;;;0.10;0.10;;;;;;;;;;5050071;28;20262;-68
2021/11/12 06:17:35;;;;;;;0.70;0.70;;;;;;;;;;5050719;28;20240;-68
2021/11/12 06:20:01;;;;;;;0.10;0.10;;;;;;;;;;5064558;28;20217;-68
2021/11/12 06:22:29;;;;;;;0.20;0.20;;;;;;;;;;5054668;28;20221;-68
2021/11/12 06:24:55;;;;;;;0.77;0.77;;;;;;;;;;5044581;28;20255;-68
2021/11/12 06:27:22;;;;;;;0.10;0.10;;;;;;;;;;5047463;28;20205;-68
2021/11/12 06:29:48;;;;;;;0.10;0.10;;;;;;;;;;5050457;28;20204;-68
2021/11/12 06:32:16;;;;;;;0.10;0.10;;;;;;;;;;5063502;28;20249;-67
2021/11/12 06:34:43;;;;;;;0.10;0.10;;;;;;;;;;5049389;28;20232;-67
2021/11/12 06:37:09;;;;;;;0.10;0.10;;;;;;;;;;5059451;28;20220;-68
2021/11/12 06:39:36;;;;;;;0.10;0.10;;;;;;;;;;5044963;28;20540;-68
2021/11/12 06:42:09;;;;;;;0.10;0.10;;;;;;;;;;5048151;28;20200;-68
2021/11/12 06:50:14;;;;;;;0.10;0.10;;;;;;;;;;5058830;28;20211;-68
2021/11/12 06:52:41;;;;;;;0.10;0.10;;;;;;;;;;5056706;28;20446;-68
2021/11/12 06:55:09;;;;;;;0.10;0.10;;;;;;;;;;5046767;28;20201;-67
2021/11/12 06:57:35;;;;;;;0.10;0.10;;;;;;;;;;5053615;28;20382;-68
2021/11/12 07:00:01;;;;;;;0.20;0.20;;;;;;;;;;5052245;28;20221;-67
2021/11/12 07:02:29;;;;;;;0.10;0.10;;;;;;;;;;5068254;28;20208;-67
2021/11/12 07:04:56;;;;;;;0.10;0.10;;;;;;;;;;5063379;28;20238;-68
2021/11/12 07:07:22;;;;;;;0.10;0.10;;;;;;;;;;5058917;28;20412;-68
2021/11/12 07:09:49;;;;;;;0.10;0.10;;;;;;;;;;5051815;28;20245;-68
2021/11/12 07:12:16;;;;;;;0.10;0.10;;;;;;;;;;5053355;28;20559;-68
2021/11/12 07:14:42;;;;;;;0.10;0.10;;;;;;;;;;5048235;28;20212;-69
2021/11/12 07:17:08;;;;;;;0.10;0.10;;;;;;;;;;5058885;28;20267;-70
2021/11/12 07:19:36;;;;;;;0.10;0.10;;;;;;;;;;5051867;28;20225;-69
2021/11/12 07:22:02;;;;;;;0.10;0.10;;;;;;;;;;5055751;28;20285;-68
2021/11/12 07:24:29;;;;;;;0.10;0.10;;;;;;;;;;5062601;28;20266;-68
2021/11/12 07:26:55;;;;;;;0.20;0.20;;;;;;;;;;5049455;28;20259;-70
2021/11/12 07:29:24;;;;;;;0.10;0.10;;;;;;;;;;5057001;28;20196;-69
2021/11/12 07:31:50;;;;;;;0.10;0.10;;;;;;;;;;5053233;28;20201;-69
2021/11/12 07:34:17;;;;;;;0.10;0.10;;;;;;;;;;5045706;28;20490;-68
2021/11/12 07:36:46;;;;;;;0.10;0.10;;;;;;;;;;5051251;28;20206;-69
2021/11/12 07:39:16;;;;;;;0.10;0.10;;;;;;;;;;5050759;28;20232;-69
2021/11/12 07:44:37;;;;;;;0.10;0.10;;;;;;;;;;5052771;28;20253;-69
2021/11/12 07:47:11;;;;;;;0.10;0.10;;;;;;;;;;5055634;28;20206;-68
2021/11/12 07:49:37;;;;;;;0.10;0.10;;;;;;;;;;5052867;28;20204;-68
2021/11/12 07:52:05;;;;;;;0.10;0.10;;;;;;;;;;5059186;28;20204;-68
2021/11/12 07:54:32;;;;;;;0.13;0.13;;;;;;;;;;5060133;28;20207;-68
2021/11/12 07:56:59;;;;;;;0.10;0.10;;;;;;;;;;5076781;28;20250;-67
2021/11/12 07:59:26;;;;;;;0.10;0.10;;;;;;;;;;5062548;28;20223;-69
2021/11/12 08:01:52;;;;;;;1.03;1.03;;;;;;;;;;5048612;28;20495;-68
2021/11/12 08:04:19;;;;;;;0.10;0.10;;;;;;;;;;5057089;28;20237;-68
2021/11/12 08:06:48;;;;;;;0.20;0.20;;;;;;;;;;5047382;28;20268;-69
2021/11/12 08:09:17;;;;;;;1.30;1.30;;;;;;;;;;5051276;28;20241;-69
2021/11/12 08:11:47;;;;;;;0.10;0.10;;;;;;;;;;5059423;28;20207;-69
2021/11/12 08:14:18;;;;;;;0.10;0.10;;;;;;;;;;5057922;28;20213;-69
2021/11/12 08:16:54;;;;;;;0.10;0.10;;;;;;;;;;5056580;28;20208;-70
2021/11/12 08:19:23;;;;;;;0.10;0.10;;;;;;;;;;5056311;28;20218;-68
2021/11/12 08:21:55;;;;;;;0.10;0.10;;;;;;;;;;5051010;28;20214;-67
2021/11/12 08:24:33;;;;;;;1.30;1.30;;;;;;;;;;5055975;28;20200;-69
2021/11/12 08:27:06;;;;;;;0.20;0.20;;;;;;;;;;5062602;28;20262;-68
2021/11/12 08:32:44;;;;;;;0.10;0.10;;;;;;;;;;5062465;28;20201;-68
2021/11/12 08:35:22;;;;;;;0.10;0.10;;;;;;;;;;5060066;28;20413;-68
2021/11/12 08:37:56;;;;;;;0.10;0.10;;;;;;;;;;5053507;28;20202;-68
2021/11/12 08:40:36;;;;;;;0.10;0.10;;;;;;;;;;5043020;28;20241;-69
2021/11/12 08:43:05;;;;;;;0.20;0.20;;;;;;;;;;5055443;28;20210;-68
2021/11/12 08:45:35;;;;;;;1.50;1.50;;;;;;;;;;5053379;28;20208;-68
2021/11/12 08:48:05;;;;;;;0.10;0.10;;;;;;;;;;5062683;28;20211;-67
2021/11/12 08:50:31;;;;;;;0.10;0.10;;;;;;;;;;5051251;28;20204;-67
2021/11/12 08:53:04;;;;;;;0.10;0.10;;;;;;;;;;5062621;28;20397;-67
2021/11/12 08:55:32;;;;;;;0.10;0.10;;;;;;;;;;5059613;28;20471;-68
2021/11/12 08:57:59;;;;;;;0.13;0.13;;;;;;;;;;5062331;28;20204;-68
2021/11/12 09:00:26;;;;;;;0.10;0.10;;;;;;;;;;5066186;28;20439;-68
2021/11/12 09:02:53;;;;;;;0.10;0.10;;;;;;;;;;5061479;28;20203;-67
2021/11/12 09:05:21;;;;;;;0.10;0.10;;;;;;;;;;5064112;28;20242;-67
2021/11/12 09:07:47;;;;;;;0.10;0.10;;;;;;;;;;5057045;28;20200;-67
2021/11/12 09:10:14;;;;;;;0.20;0.20;;;;;;;;;;5067718;28;20199;-67
2021/11/12 09:12:43;;;;;;;0.20;0.20;;;;;;;;;;5060418;28;20500;-68
2021/11/12 09:15:14;;;;;;;0.10;0.10;;;;;;;;;;5049475;28;20212;-68
2021/11/12 09:17:46;;;;;;;1.17;1.17;;;;;;;;;;5060158;28;20264;-69
2021/11/12 09:20:13;;;;;;;0.10;0.10;;;;;;;;;;5049926;28;20258;-70
2021/11/12 09:22:39;;;;;;;0.10;0.10;;;;;;;;;;5057984;28;20206;-68
2021/11/12 09:25:06;;;;;;;0.10;0.10;;;;;;;;;;5066025;28;20203;-67
2021/11/12 09:27:32;;;;;;;0.13;0.13;;;;;;;;;;5065057;28;20199;-67
2021/11/12 09:30:00;;;;;;;0.10;0.10;;;;;;;;;;5047582;28;20390;-68
2021/11/12 09:32:26;;;;;;;0.10;0.10;;;;;;;;;;5060100;28;20207;-67
2021/11/12 09:34:53;;;;;;;0.17;0.17;;;;;;;;;;5058784;28;20581;-67
2021/11/12 09:37:21;;;;;;;0.23;0.23;;;;;;;;;;5065041;28;20211;-69
2021/11/12 09:39:53;;;;;;;5.30;4.90;;;;;;;;;;5051667;28;20232;-68
2021/11/12 09:42:19;;;;;;;2.33;2.23;;;;;;;;;;5060540;28;20200;-68
2021/11/12 09:44:45;;;;;;;0.10;0.10;;;;;;;;;;5054221;28;20492;-67
2021/11/12 09:47:14;;;;;;;0.10;0.10;;;;;;;;;;5064458;28;20271;-67
2021/11/12 09:49:41;;;;;;;0.13;0.13;;;;;;;;;;5053011;28;20457;-67
2021/11/12 09:52:10;;;;;;;0.10;0.10;;;;;;;;;;5063608;28;20209;-68
2021/11/12 09:54:37;;;;;;;0.10;0.10;;;;;;;;;;5062663;28;20246;-68
2021/11/12 09:57:03;;;;;;;0.10;0.10;;;;;;;;;;5060772;28;20201;-68
2021/11/12 09:59:33;;;;;;;0.50;0.50;;;;;;;;;;5062209;28;20218;-69
2021/11/12 10:02:01;;;;;;;0.20;0.20;;;;;;;;;;5058406;28;20426;-69
2021/11/12 10:04:28;;;;;;;0.10;0.10;;;;;;;;;;5064829;28;20239;-69
2021/11/12 10:06:57;;;;;;;0.10;0.10;;;;;;;;;;5062539;28;20212;-70
2021/11/12 10:09:23;;;;;;;0.10;0.10;;;;;;;;;;5060571;28;20398;-70
2021/11/12 10:11:51;;;;;;;0.10;0.10;;;;;;;;;;5057729;28;20492;-68
2021/11/12 10:14:24;;;;;;;0.10;0.10;;;;;;;;;;5059646;28;20306;-67
2021/11/12 10:16:55;;;;;;;0.10;0.10;;;;;;;;;;5054816;28;20376;-68
2021/11/12 10:19:21;;;;;;;0.10;0.10;;;;;;;;;;5051701;28;20200;-68
2021/11/12 10:21:50;;;;;;;0.10;0.10;;;;;;;;;;5070239;28;20224;-68
2021/11/12 10:24:18;;;;;;;1.40;1.40;;;;;;;;;;5068653;28;20200;-68
2021/11/12 10:26:45;;;;;;;2.93;2.73;;;;;;;;;;5066438;28;20200;-68
2021/11/12 10:29:12;;;;;;;0.10;0.10;;;;;;;;;;5050849;28;20210;-68
2021/11/12 10:31:40;;;;;;;0.13;0.13;;;;;;;;;;5058648;28;20495;-68
2021/11/12 10:34:11;;;;;;;0.10;0.10;;;;;;;;;;5044571;28;20271;-68
2021/11/12 10:36:45;;;;;;;0.63;0.63;;;;;;;;;;5047175;28;20250;-68
2021/11/12 10:39:13;;;;;;;0.10;0.10;;;;;;;;;;5049192;28;20200;-67
2021/11/12 10:41:39;;;;;;;0.20;0.20;;;;;;;;;;5050363;28;20231;-68
2021/11/12 10:44:11;;;;;;;0.10;0.10;;;;;;;;;;5062091;28;20201;-68
2021/11/12 10:46:38;;;;;;;0.20;0.20;;;;;;;;;;5052978;28;20534;-68
2021/11/12 10:49:25;;;;;;;0.10;0.10;;;;;;;;;;5047368;28;20206;-68
2021/11/12 10:51:52;;;;;;;0.10;0.10;;;;;;;;;;5056843;28;20484;-68
2021/11/12 10:54:33;;;;;;;0.40;0.40;;;;;;;;;;5046524;28;20204;-68
2021/11/12 10:57:00;;;;;;;0.10;0.10;;;;;;;;;;5060743;28;20274;-68
2021/11/12 10:59:26;;;;;;;0.10;0.10;;;;;;;;;;5064071;28;20208;-67
2021/11/12 11:01:52;;;;;;;0.10;0.10;;;;;;;;;;5063914;28;20220;-67
2021/11/12 11:04:19;;;;;;;0.10;0.10;;;;;;;;;;5063088;28;20232;-68
2021/11/12 11:06:46;;;;;;;0.10;0.10;;;;;;;;;;5063658;28;20557;-69
2021/11/12 11:09:12;;;;;;;0.10;0.10;;;;;;;;;;5064109;28;20204;-68
2021/11/12 11:11:40;;;;;;;0.10;0.10;;;;;;;;;;5063826;28;20215;-68
2021/11/12 11:14:26;;;;;;;0.10;0.10;;;;;;;;;;5063571;28;20275;-68
2021/11/12 11:16:52;;;;;;;0.10;0.10;;;;;;;;;;5061763;28;20196;-67
2021/11/12 11:19:33;;;;;;;0.10;0.10;;;;;;;;;;5054800;28;20239;-67
2021/11/12 11:22:01;;;;;;;3.00;2.13;;;;;;;;;;5051350;28;20214;-66
2021/11/12 11:24:31;;;;;;;0.10;0.10;;;;;;;;;;5058799;28;20213;-68
2021/11/12 11:26:59;;;;;;;0.10;0.10;;;;;;;;;;5043374;28;20235;-68
2021/11/12 11:29:25;;;;;;;0.10;0.10;;;;;;;;;;5057683;28;20227;-68
2021/11/12 11:31:54;;;;;;;0.10;0.10;;;;;;;;;;5060265;28;20224;-68
2021/11/12 11:34:20;;;;;;;0.10;0.10;;;;;;;;;;5050555;28;20219;-68
2021/11/12 11:36:47;;;;;;;0.10;0.10;;;;;;;;;;5043888;28;20244;-68
2021/11/12 11:39:15;;;;;;;0.10;0.10;;;;;;;;;;5055694;28;20216;-68
2021/11/12 11:41:43;;;;;;;0.10;0.10;;;;;;;;;;5055927;28;20275;-68
2021/11/12 11:44:11;;;;;;;0.40;0.40;;;;;;;;;;5052374;28;20250;-69
2021/11/12 11:46:39;;;;;;;0.27;0.27;;;;;;;;;;5044045;28;20201;-68
2021/11/12 11:49:09;;;;;;;0.10;0.10;;;;;;;;;;5045280;28;20286;-68
2021/11/12 11:51:37;;;;;;;0.10;0.10;;;;;;;;;;5048624;28;20220;-68
2021/11/12 11:54:05;;;;;;;0.10;0.10;;;;;;;;;;5060085;28;20505;-68
2021/11/12 11:56:32;;;;;;;0.10;0.10;;;;;;;;;;5062971;28;20279;-68
2021/11/12 11:58:59;;;;;;;0.10;0.10;;;;;;;;;;5062190;28;20267;-69
2021/11/12 12:01:40;;;;;;;0.10;0.10;;;;;;;;;;5062065;28;20220;-68
2021/11/12 12:04:31;;;;;;;0.10;0.10;;;;;;;;;;5055405;28;20231;-68
2021/11/12 12:07:17;;;;;;;0.10;0.10;;;;;;;;;;5065976;28;20268;-68
2021/11/12 12:09:46;;;;;;;0.10;0.10;;;;;;;;;;5042971;28;20243;-68
2021/11/12 12:12:13;;;;;;;0.10;0.10;;;;;;;;;;5060722;28;20381;-69
2021/11/12 12:14:39;;;;;;;0.10;0.10;;;;;;;;;;5062864;28;20203;-68
2021/11/12 12:17:10;;;;;;;0.23;0.23;;;;;;;;;;5054830;28;20203;-69
2021/11/12 12:19:41;;;;;;;0.10;0.10;;;;;;;;;;5070963;28;20267;-68
2021/11/12 12:22:23;;;;;;;0.10;0.10;;;;;;;;;;5057813;28;20217;-68
2021/11/12 12:31:06;;;;;;;0.47;0.47;;;;;;;;;;5062470;28;20202;-69
2021/11/12 12:36:43;;;;;;;0.20;0.20;;;;;;;;;;5012525;28;20204;-69
2021/11/12 13:21:54;;;;;;;0.10;0.10;;;;;;;;;;5046942;28;20380;-68
2021/11/12 13:24:29;;;;;;;0.10;0.10;;;;;;;;;;5057167;28;20200;-68
2021/11/12 13:27:00;;;;;;;0.10;0.10;;;;;;;;;;5061460;28;20266;-69
2021/11/12 13:29:26;;;;;;;0.10;0.10;;;;;;;;;;5065615;28;20205;-68
2021/11/12 13:31:59;;;;;;;0.10;0.10;;;;;;;;;;5056614;28;20207;-70
2021/11/12 13:34:27;;;;;;;0.10;0.10;;;;;;;;;;5062128;28;20205;-68
2021/11/12 13:36:53;;;;;;;0.10;0.10;;;;;;;;;;5054423;28;20204;-69
2021/11/12 13:39:19;;;;;;;0.37;0.37;;;;;;;;;;5053641;28;20209;-69
2021/11/12 13:41:47;;;;;;;0.10;0.10;;;;;;;;;;5059608;28;20220;-68
2021/11/12 13:44:14;;;;;;;0.87;0.50;;;;;;;;;;5051712;28;20247;-69
2021/11/12 13:46:45;;;;;;;0.10;0.10;;;;;;;;;;5062352;28;20203;-69
2021/11/12 13:49:23;;;;;;;0.10;0.10;;;;;;;;;;5045595;28;20213;-68
2021/11/12 13:51:49;;;;;;;0.10;0.10;;;;;;;;;;5063020;28;20366;-67
2021/11/12 13:54:16;;;;;;;0.10;0.10;;;;;;;;;;5065218;28;20212;-69
2021/11/12 13:56:42;;;;;;;0.10;0.10;;;;;;;;;;5063572;28;20206;-68
2021/11/12 13:59:09;;;;;;;0.23;0.23;;;;;;;;;;5061945;28;20200;-70
2021/11/12 14:01:36;;;;;;;0.17;0.17;;;;;;;;;;5055338;28;20247;-69
2021/11/12 14:04:02;;;;;;;0.20;0.20;;;;;;;;;;5048863;28;20235;-69
2021/11/12 14:06:38;;;;;;;0.10;0.10;;;;;;;;;;5045183;28;20212;-68
2021/11/12 14:09:05;;;;;;;0.10;0.10;;;;;;;;;;5054125;28;20629;-68
2021/11/12 14:11:32;;;;;;;0.10;0.10;;;;;;;;;;5045303;28;20208;-68
2021/11/12 14:14:02;;;;;;;0.10;0.10;;;;;;;;;;5045131;28;20246;-69
2021/11/12 14:16:32;;;;;;;0.10;0.10;;;;;;;;;;5053454;28;20527;-69
2021/11/12 14:19:29;;;;;;;0.10;0.10;;;;;;;;;;5050103;28;20197;-69
2021/11/12 14:21:58;;;;;;;0.10;0.10;;;;;;;;;;5048559;28;20232;-68
2021/11/12 14:27:20;;;;;;;0.10;0.10;;;;;;;;;;5044637;28;20242;-69
2021/11/12 14:29:58;;;;;;;0.10;0.10;;;;;;;;;;5057317;28;20208;-69
2021/11/12 14:35:28;;;;;;;0.10;0.10;;;;;;;;;;5005347;28;20364;-69
2021/11/12 14:38:24;;;;;;;0.10;0.10;;;;;;;;;;5055859;28;20206;-68
2021/11/12 14:41:04;;;;;;;0.20;0.20;;;;;;;;;;5052843;28;20251;-65
2021/11/12 14:43:38;;;;;;;0.10;0.10;;;;;;;;;;5063563;28;20205;-65
2021/11/12 14:46:13;;;;;;;0.10;0.10;;;;;;;;;;5060144;28;20239;-65
2021/11/12 14:48:45;;;;;;;0.10;0.10;;;;;;;;;;5063779;28;20199;-65
2021/11/12 14:51:14;;;;;;;0.10;0.10;;;;;;;;;;5054073;28;20235;-65
2021/11/12 14:53:49;;;;;;;0.20;0.20;;;;;;;;;;5065117;28;20206;-65
2021/11/12 14:56:19;;;;;;;0.10;0.10;;;;;;;;;;5043848;28;20200;-65
2021/11/12 14:58:47;;;;;;;0.10;0.10;;;;;;;;;;5050162;28;20201;-65
2021/11/12 15:01:14;;;;;;;0.20;0.20;;;;;;;;;;5054553;28;20234;-63
2021/11/12 15:03:42;;;;;;;0.13;0.13;;;;;;;;;;5053116;28;20604;-63
2021/11/12 15:06:08;;;;;;;0.10;0.10;;;;;;;;;;5056299;28;20264;-65
2021/11/12 15:08:41;;;;;;;0.10;0.10;;;;;;;;;;5063824;28;20211;-66
2021/11/12 15:11:10;;;;;;;0.10;0.10;;;;;;;;;;5047275;28;20200;-65
2021/11/12 15:13:37;;;;;;;0.10;0.10;;;;;;;;;;5063778;28;20213;-64
2021/11/12 15:16:09;;;;;;;0.10;0.10;;;;;;;;;;5071772;28;20547;-63
2021/11/12 15:18:36;;;;;;;0.20;0.20;;;;;;;;;;5050435;28;20196;-65
2021/11/12 15:21:05;;;;;;;0.10;0.10;;;;;;;;;;5056681;28;20207;-64
2021/11/12 15:23:46;;;;;;;0.10;0.10;;;;;;;;;;5054579;28;20440;-65
2021/11/12 15:26:27;;;;;;;0.10;0.10;;;;;;;;;;5046937;28;20201;-64
2021/11/12 15:29:02;;;;;;;0.10;0.10;;;;;;;;;;5046646;28;20206;-64
2021/11/12 15:31:33;;;;;;;0.10;0.10;;;;;;;;;;5050020;28;20421;-63
2021/11/12 15:34:02;;;;;;;0.10;0.10;;;;;;;;;;5051921;28;20203;-68
2021/11/12 15:36:30;;;;;;;0.10;0.10;;;;;;;;;;5066647;28;20207;-68
2021/11/12 15:38:59;;;;;;;0.10;0.10;;;;;;;;;;5057271;28;20200;-68
2021/11/12 15:44:14;;;;;;;10.97;7.30;;;;;;;;;;5049511;28;20196;-67
2021/11/12 15:46:43;;;;;;;0.10;0.10;;;;;;;;;;5052033;28;20211;-68
2021/11/12 15:49:09;;;;;;;0.10;0.10;;;;;;;;;;5060664;28;20208;-68
2021/11/12 15:51:37;;;;;;;0.10;0.10;;;;;;;;;;5056413;28;20230;-68
2021/11/12 15:59:51;;;;;;;0.10;0.10;;;;;;;;;;5023087;28;20255;-68
2021/11/12 16:02:48;;;;;;;0.10;0.10;;;;;;;;;;5058611;28;20250;-68
2021/11/12 16:11:13;;;;;;;0.10;0.10;;;;;;;;;;5047841;28;20207;-67
2021/11/12 16:13:42;;;;;;;0.10;0.10;;;;;;;;;;5049681;28;20228;-68
2021/11/12 16:16:34;;;;;;;0.10;0.10;;;;;;;;;;5052919;28;20205;-68
2021/11/12 16:19:07;;;;;;;0.10;0.10;;;;;;;;;;5048837;28;20471;-67
2021/11/12 16:21:48;;;;;;;0.73;0.73;;;;;;;;;;5057196;28;20423;-68
2021/11/12 16:26:57;;;;;;;0.10;0.10;;;;;;;;;;5053575;28;20201;-68
2021/11/12 16:29:35;;;;;;;0.17;0.17;;;;;;;;;;5057638;28;20205;-68
2021/11/12 16:32:02;;;;;;;0.10;0.10;;;;;;;;;;5059593;28;20267;-68
2021/11/12 16:34:31;;;;;;;0.10;0.10;;;;;;;;;;5059464;28;20220;-69
2021/11/12 16:37:00;;;;;;;0.30;0.30;;;;;;;;;;5056684;28;20717;-63
2021/11/12 16:39:29;;;;;;;0.10;0.10;;;;;;;;;;5055639;28;20221;-62
2021/11/12 16:42:06;;;;;;;0.10;0.10;;;;;;;;;;5054167;28;20222;-63
2021/11/12 16:44:38;;;;;;;0.10;0.10;;;;;;;;;;5049834;28;20229;-61
2021/11/12 16:47:25;;;;;;;0.20;0.20;;;;;;;;;;5056232;28;20233;-69
2021/11/12 16:50:09;;;;;;;0.20;0.20;;;;;;;;;;5058628;28;20241;-68
2021/11/12 16:52:44;;;;;;;0.93;0.60;;;;;;;;;;5053769;28;20486;-68
2021/11/12 16:55:23;;;;;;;0.10;0.10;;;;;;;;;;5055097;28;20201;-67
2021/11/12 17:01:22;;;;;;;0.10;0.10;;;;;;;;;;5034534;28;20200;-69
2021/11/12 17:04:06;;;;;;;0.20;0.20;;;;;;;;;;5056976;28;20255;-68
2021/11/12 17:06:35;;;;;;;0.13;0.13;;;;;;;;;;5056454;28;20208;-69
2021/11/12 17:11:48;;;;;;;0.10;0.10;;;;;;;;;;5054467;28;20448;-69
2021/11/12 17:14:26;;;;;;;0.10;0.10;;;;;;;;;;5058246;28;20504;-69
2021/11/12 17:19:53;;;;;;;0.20;0.20;;;;;;;;;;5053415;28;20242;-70
2021/11/12 17:47:07;;;;;;;0.10;0.10;;;;;;;;;;5035760;28;20198;-68
2021/11/12 17:49:44;;;;;;;0.20;0.20;;;;;;;;;;5055340;28;20214;-68
2021/11/12 17:52:26;;;;;;;0.10;0.10;;;;;;;;;;5055594;28;20212;-68
2021/11/12 18:03:21;;;;;;;0.10;0.10;;;;;;;;;;5038878;28;20266;-69
2021/11/12 18:05:51;;;;;;;0.10;0.10;;;;;;;;;;5064824;28;20200;-69
2021/11/12 18:11:19;;;;;;;0.53;0.53;;;;;;;;;;5054643;28;20195;-69
2021/11/12 18:14:09;;;;;;;0.10;0.10;;;;;;;;;;5053199;28;20596;-67
2021/11/12 21:43:59;;;;;;;3.50;3.30;;;;;;;;;;5052863;28;20287;-68
2021/11/12 21:46:27;;;;;;;0.90;0.90;;;;;;;;;;5050972;28;20199;-69
2021/11/12 21:48:58;;;;;;;0.30;0.30;;;;;;;;;;5054537;28;20215;-69
2021/11/12 21:51:25;;;;;;;0.20;0.20;;;;;;;;;;5056967;28;20399;-69
2021/11/12 21:53:54;;;;;;;0.10;0.10;;;;;;;;;;5054429;28;20200;-69
2021/11/12 21:56:20;;;;;;;0.10;0.10;;;;;;;;;;5051180;28;20215;-68
2021/11/12 21:58:47;;;;;;;0.10;0.10;;;;;;;;;;5053862;28;20201;-68
2021/11/12 22:01:14;;;;;;;0.10;0.10;;;;;;;;;;5060731;28;20215;-68
2021/11/12 22:03:43;;;;;;;0.90;0.90;;;;;;;;;;5052285;28;20239;-68
2021/11/12 22:06:09;;;;;;;0.47;0.47;;;;;;;;;;5053616;28;20212;-68
2021/11/12 22:08:36;;;;;;;0.10;0.10;;;;;;;;;;5070519;28;20207;-68
2021/11/12 22:11:04;;;;;;;0.50;0.50;;;;;;;;;;5045205;28;20204;-68
2021/11/12 22:13:31;;;;;;;0.20;0.20;;;;;;;;;;5059072;28;20208;-68
2021/11/12 22:15:58;;;;;;;0.10;0.10;;;;;;;;;;5061419;28;20241;-68
2021/11/12 22:18:24;;;;;;;0.20;0.20;;;;;;;;;;5045017;28;20507;-68
2021/11/12 22:20:50;;;;;;;1.03;1.03;;;;;;;;;;5055901;28;20206;-68
2021/11/12 22:23:17;;;;;;;0.20;0.20;;;;;;;;;;5053703;28;20245;-68
2021/11/12 22:25:43;;;;;;;0.20;0.20;;;;;;;;;;5055213;28;20207;-68
2021/11/12 22:28:11;;;;;;;0.20;0.20;;;;;;;;;;5055918;28;20448;-68
2021/11/12 22:30:38;;;;;;;0.10;0.10;;;;;;;;;;5053330;28;20214;-69
2021/11/12 22:33:05;;;;;;;0.53;0.53;;;;;;;;;;5060521;28;20322;-67
2021/11/12 22:35:32;;;;;;;0.53;0.53;;;;;;;;;;5049700;28;20491;-69
2021/11/12 22:37:58;;;;;;;0.93;0.90;;;;;;;;;;5060793;28;20241;-68
2021/11/12 22:40:25;;;;;;;0.20;0.20;;;;;;;;;;5044665;28;20208;-68
2021/11/12 22:42:51;;;;;;;0.10;0.10;;;;;;;;;;5044301;28;20223;-68
2021/11/12 22:45:18;;;;;;;0.77;0.77;;;;;;;;;;5064351;28;20253;-68
2021/11/12 22:47:45;;;;;;;0.90;0.90;;;;;;;;;;5053515;28;20377;-68
2021/11/12 22:50:11;;;;;;;0.63;0.63;;;;;;;;;;5064353;28;20496;-67
2021/11/12 22:52:38;;;;;;;1.60;0.87;;;;;;;;;;5053719;28;20488;-68